Observation data for Plainview on 03/11/2018      Previous  Date  Next       Current Mesonet Observations  Soil Data  Daily Summary Page  Observations in Plain Language
KPVS 110600Z 02019G27KT 13/M05 A2998 RMK A01 T01271052  RH  029%=      5-min Rain = 0
KPVS 110605Z 02020G27KT 13/M05 A2998 RMK A01 T01261051  RH  029%=      5-min Rain = 0
KPVS 110610Z 02022G31KT 13/M05 A2998 RMK A01 T01261051  RH  029%=      5-min Rain = 0
KPVS 110615Z 02021G28KT 13/M05 A2999 RMK A01 T01261051  RH  029%=      5-min Rain = 0
KPVS 110620Z 02019G26KT 13/M05 A2999 RMK A01 T01251051  RH  029%=      5-min Rain = 0
KPVS 110625Z 02019G27KT 12/M05 A2999 RMK A01 T01241052  RH  029%=      5-min Rain = 0
KPVS 110630Z 02020G30KT 12/M05 A30 RMK A01 T01221052  RH  030%=      5-min Rain = 0
KPVS 110635Z 02022G29KT 12/M05 A30 RMK A01 T01211052  RH  030%=      5-min Rain = 0
KPVS 110640Z 02017G25KT 12/M05 A30 RMK A01 T01201051  RH  030%=      5-min Rain = 0
KPVS 110645Z 01018G27KT 12/M05 A3001 RMK A01 T01201049  RH  031%=      5-min Rain = 0
KPVS 110650Z 02018G27KT 12/M05 A3001 RMK A01 T01191048  RH  031%=      5-min Rain = 0
KPVS 110655Z 02019G27KT 12/M05 A3002 RMK A01 T01181047  RH  031%=      5-min Rain = 0
KPVS 110700Z 02020G27KT 12/M05 A3002 RMK A01 T01171045  RH  032%=      5-min Rain = 0
KPVS 110705Z 02021G26KT 12/M04 A3002 RMK A01 T01161042  RH  033%=      5-min Rain = 0
KPVS 110710Z 02021G32KT 12/M04 A3003 RMK A01 T01161040  RH  034%=      5-min Rain = 0
KPVS 110715Z 02023G32KT 12/M04 A3003 RMK A01 T01151038  RH  034%=      5-min Rain = 0
KPVS 110720Z 02020G28KT 11/M04 A3004 RMK A01 T01141037  RH  035%=      5-min Rain = 0
KPVS 110725Z 02022G30KT 11/M04 A3004 RMK A01 T01141036  RH  035%=      5-min Rain = 0
KPVS 110730Z 02018G28KT 11/M04 A3004 RMK A01 T01131035  RH  036%=      5-min Rain = 0
KPVS 110735Z 02021G28KT 11/M04 A3004 RMK A01 T01121035  RH  036%=      5-min Rain = 0
KPVS 110740Z 02019G30KT 11/M03 A3004 RMK A01 T01111034  RH  037%=      5-min Rain = 0
KPVS 110745Z 02021G29KT 11/M03 A3004 RMK A01 T01101033  RH  037%=      5-min Rain = 0
KPVS 110750Z 02022G30KT 11/M03 A3005 RMK A01 T01091033  RH  037%=      5-min Rain = 0
KPVS 110755Z 02021G28KT 11/M03 A3005 RMK A01 T01091033  RH  037%=      5-min Rain = 0
KPVS 110800Z 02019G26KT 11/M03 A3005 RMK A01 T01081033  RH  038%=      5-min Rain = 0
KPVS 110805Z 02017G26KT 11/M03 A3006 RMK A01 T01071033  RH  038%=      5-min Rain = 0
KPVS 110810Z 02018G26KT 11/M03 A3006 RMK A01 T01061032  RH  038%=      5-min Rain = 0
KPVS 110815Z 02018G24KT 11/M03 A3006 RMK A01 T01061033  RH  038%=      5-min Rain = 0
KPVS 110820Z 02019KT 11/M03 A3006 RMK A01 T01051033  RH  038%=      5-min Rain = 0
KPVS 110825Z 02018G24KT 11/M03 A3006 RMK A01 T01051033  RH  038%=      5-min Rain = 0
KPVS 110830Z 02017G24KT 11/M03 A3006 RMK A01 T01051033  RH  038%=      5-min Rain = 0
KPVS 110835Z 02016G22KT 10/M03 A3007 RMK A01 T01041034  RH  038%=      5-min Rain = 0
KPVS 110840Z 02016G23KT 10/M03 A3007 RMK A01 T01041034  RH  038%=      5-min Rain = 0
KPVS 110845Z 02017G23KT 10/M04 A3007 RMK A01 T01041035  RH  038%=      5-min Rain = 0
KPVS 110850Z 02016G23KT 10/M04 A3007 RMK A01 T01041035  RH  038%=      5-min Rain = 0
KPVS 110855Z 02015G22KT 10/M04 A3008 RMK A01 T01041036  RH  038%=      5-min Rain = 0
KPVS 110900Z 02016G21KT 10/M04 A3007 RMK A01 T01031038  RH  037%=      5-min Rain = 0
KPVS 110905Z 02018G24KT 10/M04 A3007 RMK A01 T01031040  RH  037%=      5-min Rain = 0
KPVS 110910Z 02016G26KT 10/M04 A3007 RMK A01 T01031042  RH  036%=      5-min Rain = 0
KPVS 110915Z 02016G24KT 10/M05 A3007 RMK A01 T01031045  RH  036%=      5-min Rain = 0
KPVS 110920Z 02018G24KT 10/M05 A3007 RMK A01 T01021048  RH  035%=      5-min Rain = 0
KPVS 110925Z 02016G26KT 10/M05 A3008 RMK A01 T01021051  RH  034%=      5-min Rain = 0
KPVS 110930Z 02019G24KT 10/M05 A3008 RMK A01 T01021053  RH  034%=      5-min Rain = 0
KPVS 110935Z 02016G27KT 10/M05 A3008 RMK A01 T01011053  RH  034%=      5-min Rain = 0
KPVS 110940Z 02016G22KT 10/M05 A3008 RMK A01 T01001052  RH  034%=      5-min Rain = 0
KPVS 110945Z 02015G21KT 10/M05 A3008 RMK A01 T00991052  RH  034%=      5-min Rain = 0
KPVS 110950Z 02017G22KT 10/M05 A3009 RMK A01 T00991054  RH  034%=      5-min Rain = 0
KPVS 110955Z 02018G26KT 10/M06 A3009 RMK A01 T00981055  RH  034%=      5-min Rain = 0
KPVS 111000Z 02018G26KT 10/M06 A3009 RMK A01 T00981055  RH  034%=      5-min Rain = 0
KPVS 111005Z 03018G25KT 10/M05 A3009 RMK A01 T00971054  RH  034%=      5-min Rain = 0
KPVS 111010Z 02017G24KT 10/M05 A3009 RMK A01 T00971054  RH  034%=      5-min Rain = 0
KPVS 111015Z 02017G23KT 10/M05 A3009 RMK A01 T00961054  RH  035%=      5-min Rain = 0
KPVS 111020Z 02016G22KT 10/M05 A301 RMK A01 T00951054  RH  035%=      5-min Rain = 0
KPVS 111025Z 02018G27KT 10/M05 A301 RMK A01 T00951053  RH  035%=      5-min Rain = 0
KPVS 111030Z 02017G22KT 09/M05 A301 RMK A01 T00941051  RH  036%=      5-min Rain = 0
KPVS 111035Z 02019G27KT 09/M05 A301 RMK A01 T00931050  RH  037%=      5-min Rain = 0
KPVS 111040Z 02018G24KT 09/M05 A301 RMK A01 T00921048  RH  037%=      5-min Rain = 0
KPVS 111045Z 01015G23KT 09/M05 A3011 RMK A01 T00901046  RH  038%=      5-min Rain = 0
KPVS 111050Z 02016G23KT 09/M04 A3011 RMK A01 T00901044  RH  039%=      5-min Rain = 0
KPVS 111055Z 01017KT 09/M04 A3011 RMK A01 T00881043  RH  040%=      5-min Rain = 0
KPVS 111100Z 02016G25KT 09/M04 A3011 RMK A01 T00861043  RH  040%=      5-min Rain = 0
KPVS 111105Z 02015G22KT 08/M04 A3012 RMK A01 T00841043  RH  041%=      5-min Rain = 0
KPVS 111110Z 02017G27KT 08/M04 A3012 RMK A01 T00831043  RH  041%=      5-min Rain = 0
KPVS 111115Z 01017G24KT 08/M04 A3013 RMK A01 T00821044  RH  041%=      5-min Rain = 0
KPVS 111120Z 01016G22KT 08/M04 A3013 RMK A01 T00811044  RH  041%=      5-min Rain = 0
KPVS 111125Z 02016G24KT 08/M05 A3013 RMK A01 T00801045  RH  042%=      5-min Rain = 0
KPVS 111130Z 02016G23KT 08/M05 A3013 RMK A01 T00781045  RH  042%=      5-min Rain = 0
KPVS 111135Z 02019G26KT 08/M05 A3013 RMK A01 T00771046  RH  042%=      5-min Rain = 0
KPVS 111140Z 02018G25KT 08/M05 A3013 RMK A01 T00761046  RH  042%=      5-min Rain = 0
KPVS 111145Z 01020G26KT 08/M05 A3013 RMK A01 T00751048  RH  042%=      5-min Rain = 0
KPVS 111150Z 01018G27KT 07/M05 A3014 RMK A01 T00731051  RH  041%=      5-min Rain = 0
KPVS 111155Z 02018G25KT 07/M05 A3014 RMK A01 T00721052  RH  041%=      5-min Rain = 0
KPVS 111200Z 02019G25KT 07/M05 A3013 RMK A01 T00701053  RH  042%=      5-min Rain = 0
KPVS 111205Z 02018G25KT 07/M05 A3014 RMK A01 T00691054  RH  042%=      5-min Rain = 0
KPVS 111210Z 02016G24KT 07/M05 A3014 RMK A01 T00681054  RH  042%=      5-min Rain = 0
KPVS 111215Z 01015G24KT 07/M06 A3015 RMK A01 T00671056  RH  042%=      5-min Rain = 0
KPVS 111220Z 02016G24KT 07/M06 A3015 RMK A01 T00661058  RH  041%=      5-min Rain = 0
KPVS 111225Z 01016G25KT 06/M06 A3015 RMK A01 T00641059  RH  041%=      5-min Rain = 0
KPVS 111230Z 01017G23KT 06/M06 A3015 RMK A01 T00631060  RH  041%=      5-min Rain = 0
KPVS 111235Z 01016G21KT 06/M06 A3016 RMK A01 T00621061  RH  041%=      5-min Rain = 0
KPVS 111240Z 00016G22KT 06/M06 A3016 RMK A01 T00611061  RH  042%=      5-min Rain = 0
KPVS 111245Z 01015G23KT 06/M06 A3017 RMK A01 T00601062  RH  042%=      5-min Rain = 0
KPVS 111250Z 00018G24KT 06/M06 A3017 RMK A01 T00591063  RH  042%=      5-min Rain = 0
KPVS 111255Z 01018KT 06/M06 A3017 RMK A01 T00581064  RH  042%=      5-min Rain = 0
KPVS 111300Z 01017G22KT 06/M06 A3017 RMK A01 T00561064  RH  042%=      5-min Rain = 0
KPVS 111305Z 01016G23KT 06/M06 A3018 RMK A01 T00551063  RH  043%=      5-min Rain = 0
KPVS 111310Z 01016G24KT 05/M06 A3018 RMK A01 T00541062  RH  043%=      5-min Rain = 0
KPVS 111315Z 01016G24KT 05/M06 A3019 RMK A01 T00541061  RH  044%=      5-min Rain = 0
KPVS 111320Z 01015G23KT 05/M06 A3019 RMK A01 T00531060  RH  044%=      5-min Rain = 0
KPVS 111325Z 01016G25KT 05/M06 A3019 RMK A01 T00531059  RH  045%=      5-min Rain = 0
KPVS 111330Z 01017G22KT 05/M06 A3019 RMK A01 T00521059  RH  045%=      5-min Rain = 0
KPVS 111335Z 01016G24KT 05/M06 A3019 RMK A01 T00521059  RH  045%=      5-min Rain = 0
KPVS 111340Z 01015G23KT 05/M06 A302 RMK A01 T00521059  RH  045%=      5-min Rain = 0
KPVS 111345Z 01015G22KT 05/M06 A302 RMK A01 T00521060  RH  045%=      5-min Rain = 0
KPVS 111350Z 01016G24KT 05/M06 A302 RMK A01 T00521061  RH  044%=      5-min Rain = 0
KPVS 111355Z 01017G24KT 05/M06 A302 RMK A01 T00521062  RH  044%=      5-min Rain = 0
KPVS 111400Z 01015G25KT 05/M06 A3021 RMK A01 T00521062  RH  044%=      5-min Rain = 0
KPVS 111405Z 01016G25KT 05/M06 A3021 RMK A01 T00511060  RH  045%=      5-min Rain = 0
KPVS 111410Z 01016G21KT 05/M06 A3021 RMK A01 T00501058  RH  046%=      5-min Rain = 0
KPVS 111415Z 02017G24KT 05/M06 A3021 RMK A01 T00501057  RH  046%=      5-min Rain = 0
KPVS 111420Z 02015G21KT 05/M06 A3021 RMK A01 T00501056  RH  047%=      5-min Rain = 0
KPVS 111425Z 01016G23KT 05/M05 A3021 RMK A01 T00501054  RH  047%=      5-min Rain = 0
KPVS 111430Z 01017G24KT 05/M05 A3022 RMK A01 T00501052  RH  048%=      5-min Rain = 0
KPVS 111435Z 01015G25KT 05/M05 A3022 RMK A01 T00501052  RH  048%=      5-min Rain = 0
KPVS 111440Z 01015G22KT 05/M05 A3023 RMK A01 T00501051  RH  048%=      5-min Rain = 0
KPVS 111445Z 01017G23KT 05/M05 A3024 RMK A01 T00501051  RH  049%=      5-min Rain = 0
KPVS 111450Z 01016G23KT 05/M05 A3024 RMK A01 T00491049  RH  049%=      5-min Rain = 0
KPVS 111455Z 00018G25KT 05/M05 A3024 RMK A01 T00481048  RH  051%=      5-min Rain = 0
KPVS 111500Z 01018G23KT 05/M05 A3024 RMK A01 T00471049  RH  050%=      5-min Rain = 0
KPVS 111505Z 01018G26KT 05/M05 A3024 RMK A01 T00481050  RH  050%=      5-min Rain = 0
KPVS 111510Z 01017G23KT 05/M05 A3025 RMK A01 T00491052  RH  049%=      5-min Rain = 0
KPVS 111515Z 01017G25KT 05/M06 A3025 RMK A01 T00501056  RH  047%=      5-min Rain = 0
KPVS 111520Z 01017G23KT 05/M05 A3025 RMK A01 T00531054  RH  047%=      5-min Rain = 0
KPVS 111525Z 00018G25KT 05/M06 A3026 RMK A01 T00531056  RH  046%=      5-min Rain = 0
KPVS 111530Z 36017G27KT 05/M06 A3026 RMK A01 T00521058  RH  045%=      5-min Rain = 0
KPVS 111535Z 01020G27KT 05/M06 A3026 RMK A01 T00531061  RH  044%=      5-min Rain = 0
KPVS 111540Z 01017G22KT 06/M06 A3027 RMK A01 T00561062  RH  043%=      5-min Rain = 0
KPVS 111545Z 01017G23KT 06/M07 A3027 RMK A01 T00581065  RH  041%=      5-min Rain = 0
KPVS 111550Z 01017G26KT 06/M07 A3027 RMK A01 T00591066  RH  041%=      5-min Rain = 0
KPVS 111555Z 02018KT 06/M07 A3027 RMK A01 T00601068  RH  040%=      5-min Rain = 0
KPVS 111600Z 02017G24KT 06/M07 A3028 RMK A01 T00601071  RH  039%=      5-min Rain = 0
KPVS 111605Z 00018G26KT 06/M07 A3028 RMK A01 T00631071  RH  038%=      5-min Rain = 0
KPVS 111610Z 01015G24KT 07/M07 A3029 RMK A01 T00651071  RH  037%=      5-min Rain = 0
KPVS 111615Z 01016G24KT 07/M07 A3029 RMK A01 T00711071  RH  036%=      5-min Rain = 0
KPVS 111620Z 02017G23KT 07/M07 A3029 RMK A01 T00681071  RH  037%=      5-min Rain = 0
KPVS 111625Z 01018G25KT 07/M07 A3028 RMK A01 T00681073  RH  036%=      5-min Rain = 0
KPVS 111630Z 02017G23KT 07/M07 A3028 RMK A01 T00691071  RH  037%=      5-min Rain = 0
KPVS 111635Z 00019G24KT 07/M07 A3028 RMK A01 T00721067  RH  037%=      5-min Rain = 0
KPVS 111640Z 00018G27KT 07/M07 A3028 RMK A01 T00721067  RH  037%=      5-min Rain = 0
KPVS 111645Z 02013G21KT 08/M07 A3028 RMK A01 T00781066  RH  036%=      5-min Rain = 0
KPVS 111650Z 01017G26KT 08/M08 A3028 RMK A01 T00811075  RH  033%=      5-min Rain = 0
KPVS 111655Z 01019G26KT 08/M08 A3028 RMK A01 T00801077  RH  032%=      5-min Rain = 0
KPVS 111700Z 02017G24KT 08/M08 A3028 RMK A01 T00811077  RH  032%=      5-min Rain = 0
KPVS 111705Z 36017G27KT 09/M08 A3028 RMK A01 T00891075  RH  031%=      5-min Rain = 0
KPVS 111710Z 00018G27KT 09/M08 A3028 RMK A01 T00861078  RH  031%=      5-min Rain = 0
KPVS 111715Z 01014KT 09/M08 A3028 RMK A01 T00901076  RH  031%=      5-min Rain = 0
KPVS 111720Z 01019G24KT 09/M08 A3028 RMK A01 T00911078  RH  030%=      5-min Rain = 0
KPVS 111725Z 01016G23KT 09/M08 A3028 RMK A01 T00901079  RH  030%=      5-min Rain = 0
KPVS 111730Z 00016G22KT 09/M08 A3028 RMK A01 T00891078  RH  030%=      5-min Rain = 0
KPVS 111735Z 01018G25KT 09/M08 A3028 RMK A01 T00901079  RH  030%=      5-min Rain = 0
KPVS 111740Z 02017G23KT 09/M08 A3028 RMK A01 T00911080  RH  029%=      5-min Rain = 0
KPVS 111745Z 02017G24KT 09/M08 A3028 RMK A01 T00941079  RH  029%=      5-min Rain = 0
KPVS 111750Z 01017G24KT 10/M08 A3028 RMK A01 T00991078  RH  028%=      5-min Rain = 0
KPVS 111755Z 01017G24KT 10/M08 A3028 RMK A01 T00981078  RH  029%=      5-min Rain = 0
KPVS 111800Z 01018G24KT 10/M08 A3028 RMK A01 T00961079  RH  029%=      5-min Rain = 0
KPVS 111805Z 01015G20KT 10/M08 A3028 RMK A01 T00981077  RH  029%=      5-min Rain = 0
KPVS 111810Z 01016G23KT 10/M08 A3028 RMK A01 T01031076  RH  028%=      5-min Rain = 0
KPVS 111815Z 01016G23KT 10/M08 A3028 RMK A01 T01001076  RH  028%=      5-min Rain = 0
KPVS 111820Z 00014G20KT 11/M07 A3028 RMK A01 T01061072  RH  028%=      5-min Rain = 0
KPVS 111825Z 36015G22KT 11/M08 A3029 RMK A01 T01051075  RH  028%=      5-min Rain = 0
KPVS 111830Z 02015G21KT 10/M08 A3028 RMK A01 T01041076  RH  028%=      5-min Rain = 0
KPVS 111835Z 01016G24KT 10/M08 A3028 RMK A01 T01031080  RH  027%=      5-min Rain = 0
KPVS 111840Z 02016G22KT 11/M09 A3029 RMK A01 T01051086  RH  026%=      5-min Rain = 0
KPVS 111845Z 02013G21KT 11/M08 A3029 RMK A01 T01061082  RH  026%=      5-min Rain = 0
KPVS 111850Z 35014G21KT 11/M08 A3029 RMK A01 T01071080  RH  026%=      5-min Rain = 0
KPVS 111855Z 01012G22KT 11/M08 A3028 RMK A01 T01081083  RH  026%=      5-min Rain = 0
KPVS 111900Z 01013G21KT 11/M08 A3028 RMK A01 T01061084  RH  026%=      5-min Rain = 0
KPVS 111905Z 00015G21KT 11/M09 A3028 RMK A01 T01081087  RH  025%=      5-min Rain = 0
KPVS 111910Z 02015G23KT 11/M09 A3028 RMK A01 T01101090  RH  024%=      5-min Rain = 0
KPVS 111915Z 02013G22KT 11/M09 A3028 RMK A01 T01111091  RH  023%=      5-min Rain = 0
KPVS 111920Z 35013G22KT 11/M09 A3027 RMK A01 T01111089  RH  024%=      5-min Rain = 0
KPVS 111925Z 01015G20KT 12/M09 A3027 RMK A01 T01161088  RH  023%=      5-min Rain = 0
KPVS 111930Z 00013G21KT 12/M09 A3027 RMK A01 T01171091  RH  023%=      5-min Rain = 0
KPVS 111935Z 36016G24KT 12/M09 A3027 RMK A01 T01181090  RH  023%=      5-min Rain = 0
KPVS 111940Z 02015G21KT 12/M09 A3027 RMK A01 T01161094  RH  022%=      5-min Rain = 0
KPVS 111945Z 02016G25KT 12/M09 A3027 RMK A01 T01151093  RH  023%=      5-min Rain = 0
KPVS 111950Z 01015G23KT 12/M10 A3027 RMK A01 T01171095  RH  022%=      5-min Rain = 0
KPVS 111955Z 01015G21KT 12/M10 A3027 RMK A01 T01161097  RH  022%=      5-min Rain = 0
KPVS 112000Z 35013G18KT 12/M10 A3027 RMK A01 T01151098  RH  022%=      5-min Rain = 0
KPVS 112005Z 01015G23KT 11/M10 A3027 RMK A01 T01131099  RH  022%=      5-min Rain = 0
KPVS 112010Z 01016G24KT 12/M10 A3027 RMK A01 T01151098  RH  022%=      5-min Rain = 0
KPVS 112015Z 01013KT 11/M10 A3027 RMK A01 T01131099  RH  022%=      5-min Rain = 0
KPVS 112020Z 01014G20KT 12/M10 A3027 RMK A01 T01151099  RH  021%=      5-min Rain = 0
KPVS 112025Z 35014G19KT 12/M10 A3026 RMK A01 T01161100  RH  021%=      5-min Rain = 0
KPVS 112030Z 35013G18KT 12/M10 A3026 RMK A01 T01201101  RH  020%=      5-min Rain = 0
KPVS 112035Z 01013G18KT 12/M10 A3026 RMK A01 T01231101  RH  020%=      5-min Rain = 0
KPVS 112040Z 35014G21KT 12/M10 A3026 RMK A01 T01231103  RH  020%=      5-min Rain = 0
KPVS 112045Z 35014G19KT 12/M11 A3026 RMK A01 T01211106  RH  020%=      5-min Rain = 0
KPVS 112050Z 35013G21KT 12/M11 A3026 RMK A01 T01161107  RH  020%=      5-min Rain = 0
KPVS 112055Z 01012G17KT 12/M10 A3025 RMK A01 T01211104  RH  020%=      5-min Rain = 0
KPVS 112100Z 01012G19KT 12/M11 A3025 RMK A01 T01241106  RH  019%=      5-min Rain = 0
KPVS 112105Z 01012G21KT 12/M11 A3025 RMK A01 T01241107  RH  019%=      5-min Rain = 0
KPVS 112110Z 01014G19KT 13/M11 A3025 RMK A01 T01251109  RH  019%=      5-min Rain = 0
KPVS 112115Z 00012KT 13/M11 A3025 RMK A01 T01251110  RH  018%=      5-min Rain = 0
KPVS 112120Z 00013G18KT 13/M11 A3024 RMK A01 T01271112  RH  018%=      5-min Rain = 0
KPVS 112125Z 36010G16KT 13/M11 A3024 RMK A01 T01291110  RH  018%=      5-min Rain = 0
KPVS 112130Z 36015G21KT 13/M12 A3024 RMK A01 T01301116  RH  017%=      5-min Rain = 0
KPVS 112135Z 02015G20KT 13/M12 A3024 RMK A01 T01261120  RH  017%=      5-min Rain = 0
KPVS 112140Z 00013G18KT 13/M12 A3024 RMK A01 T01261116  RH  017%=      5-min Rain = 0
KPVS 112145Z 36013G19KT 13/M12 A3024 RMK A01 T01301118  RH  017%=      5-min Rain = 0
KPVS 112150Z 01015G21KT 13/M12 A3024 RMK A01 T01291119  RH  017%=      5-min Rain = 0
KPVS 112155Z 01014KT 13/M12 A3024 RMK A01 T01291122  RH  016%=      5-min Rain = 0
KPVS 112200Z 35012G19KT 13/M12 A3024 RMK A01 T01311121  RH  016%=      5-min Rain = 0
KPVS 112205Z 01012KT 13/M12 A3024 RMK A01 T01311121  RH  016%=      5-min Rain = 0
KPVS 112210Z 02015KT 13/M12 A3024 RMK A01 T01301122  RH  016%=      5-min Rain = 0
KPVS 112215Z 01014G19KT 13/M12 A3024 RMK A01 T01281123  RH  016%=      5-min Rain = 0
KPVS 112220Z 01016G24KT 13/M12 A3024 RMK A01 T01281117  RH  017%=      5-min Rain = 0
KPVS 112225Z 01014G19KT 13/M11 A3024 RMK A01 T01271114  RH  018%=      5-min Rain = 0
KPVS 112230Z 01012G17KT 12/M11 A3024 RMK A01 T01231114  RH  018%=      5-min Rain = 0
KPVS 112235Z 01014G21KT 12/M12 A3024 RMK A01 T01221117  RH  018%=      5-min Rain = 0
KPVS 112240Z 01014G20KT 12/M12 A3024 RMK A01 T01211120  RH  018%=      5-min Rain = 0
KPVS 112245Z 01011G16KT 13/M12 A3025 RMK A01 T01251120  RH  017%=      5-min Rain = 0
KPVS 112250Z 01013G20KT 13/M12 A3025 RMK A01 T01271119  RH  017%=      5-min Rain = 0
KPVS 112255Z 01015KT 12/M12 A3025 RMK A01 T01241118  RH  018%=      5-min Rain = 0
KPVS 112300Z 01011G16KT 12/M12 A3025 RMK A01 T01231116  RH  018%=      5-min Rain = 0
KPVS 112305Z 02013G18KT 12/M12 A3025 RMK A01 T01221118  RH  018%=      5-min Rain = 0
KPVS 112310Z 01013G19KT 12/M12 A3025 RMK A01 T01231116  RH  018%=      5-min Rain = 0
KPVS 112315Z 35012G17KT 12/M12 A3025 RMK A01 T01231115  RH  018%=      5-min Rain = 0
KPVS 112320Z 35010KT 12/M12 A3025 RMK A01 T01231116  RH  018%=      5-min Rain = 0
KPVS 112325Z 03010KT 12/M12 A3025 RMK A01 T01221118  RH  018%=      5-min Rain = 0
KPVS 112330Z 36011G16KT 12/M12 A3026 RMK A01 T01201118  RH  018%=      5-min Rain = 0
KPVS 112335Z 35009G14KT 12/M12 A3026 RMK A01 T01181119  RH  018%=      5-min Rain = 0
KPVS 112340Z 35011KT 12/M12 A3026 RMK A01 T01171120  RH  018%=      5-min Rain = 0
KPVS 112345Z 36011KT 12/M12 A3026 RMK A01 T01171122  RH  018%=      5-min Rain = 0
KPVS 112350Z 01012KT 12/M13 A3026 RMK A01 T01171126  RH  017%=      5-min Rain = 0
KPVS 112355Z 00011KT 12/M13 A3026 RMK A01 T01181130  RH  017%=      5-min Rain = 0
KPVS 120000Z 01013KT 12/M14 A3026 RMK A01 T01161142  RH  015%=      5-min Rain = 0
KPVS 120005Z 01012KT 12/M15 A3026 RMK A01 T01151150  RH  014%=      5-min Rain = 0
KPVS 120010Z 00011KT 11/M15 A3027 RMK A01 T01141153  RH  014%=      5-min Rain = 0
KPVS 120015Z 01011KT 11/M15 A3027 RMK A01 T01131153  RH  014%=      5-min Rain = 0
KPVS 120020Z 01011KT 11/M15 A3027 RMK A01 T01121150  RH  015%=      5-min Rain = 0
KPVS 120025Z 01011KT 11/M15 A3027 RMK A01 T01111145  RH  015%=      5-min Rain = 0
KPVS 120030Z 00011KT 11/M15 A3028 RMK A01 T01111148  RH  015%=      5-min Rain = 0
KPVS 120035Z 02010KT 11/M15 A3028 RMK A01 T01091151  RH  015%=      5-min Rain = 0
KPVS 120040Z 01009KT 11/M15 A3028 RMK A01 T01061151  RH  015%=      5-min Rain = 0
KPVS 120045Z 01010KT 10/M15 A3028 RMK A01 T01041151  RH  015%=      5-min Rain = 0
KPVS 120050Z 00008KT 10/M15 A3029 RMK A01 T01021150  RH  016%=      5-min Rain = 0
KPVS 120055Z 00009KT 10/M15 A3029 RMK A01 T01001148  RH  016%=      5-min Rain = 0
KPVS 120100Z 00006KT 10/M15 A3029 RMK A01 T00971146  RH  017%=      5-min Rain = 0
KPVS 120105Z 01006KT 09/M14 A3029 RMK A01 T00941144  RH  017%=      5-min Rain = 0
KPVS 120110Z 01006KT 09/M14 A3029 RMK A01 T00931144  RH  017%=      5-min Rain = 0
KPVS 120115Z 01007KT 09/M14 A3029 RMK A01 T00921144  RH  018%=      5-min Rain = 0
KPVS 120120Z 01006KT 09/M14 A3029 RMK A01 T00911144  RH  018%=      5-min Rain = 0
KPVS 120125Z 00005KT 09/M14 A3029 RMK A01 T00901143  RH  018%=      5-min Rain = 0
KPVS 120130Z 00006KT 09/M14 A303 RMK A01 T00881142  RH  018%=      5-min Rain = 0
KPVS 120135Z 36004KT 09/M14 A303 RMK A01 T00871142  RH  018%=      5-min Rain = 0
KPVS 120140Z 00005KT 09/M14 A303 RMK A01 T00861140  RH  019%=      5-min Rain = 0
KPVS 120145Z 00006KT 09/M14 A303 RMK A01 T00871138  RH  019%=      5-min Rain = 0
KPVS 120150Z 00005KT 09/M14 A303 RMK A01 T00861137  RH  019%=      5-min Rain = 0
KPVS 120155Z 01005KT 09/M14 A303 RMK A01 T00871137  RH  019%=      5-min Rain = 0
KPVS 120200Z 01006KT 09/M14 A303 RMK A01 T00851137  RH  020%=      5-min Rain = 0
KPVS 120205Z 01006KT 08/M14 A303 RMK A01 T00831136  RH  020%=      5-min Rain = 0
KPVS 120210Z 01006KT 08/M14 A3031 RMK A01 T00831139  RH  019%=      5-min Rain = 0
KPVS 120215Z 01006KT 08/M14 A3031 RMK A01 T00831141  RH  019%=      5-min Rain = 0
KPVS 120220Z 01007KT 08/M14 A3031 RMK A01 T00821140  RH  019%=      5-min Rain = 0
KPVS 120225Z 02006KT 08/M14 A3031 RMK A01 T00801141  RH  020%=      5-min Rain = 0
KPVS 120230Z 01007KT 08/M14 A3031 RMK A01 T00781143  RH  020%=      5-min Rain = 0
KPVS 120235Z 02006KT 08/M15 A3031 RMK A01 T00781145  RH  019%=      5-min Rain = 0
KPVS 120240Z 03007KT 08/M15 A3031 RMK A01 T00781148  RH  019%=      5-min Rain = 0
KPVS 120245Z 03008KT 08/M15 A3031 RMK A01 T00781150  RH  018%=      5-min Rain = 0
KPVS 120250Z 03008KT 08/M15 A3031 RMK A01 T00761152  RH  018%=      5-min Rain = 0
KPVS 120255Z 03010KT 08/M16 A3031 RMK A01 T00771156  RH  018%=      5-min Rain = 0
KPVS 120300Z 03010G15KT 08/M16 A3031 RMK A01 T00781158  RH  017%=      5-min Rain = 0
KPVS 120305Z 03010KT 08/M16 A3031 RMK A01 T00761158  RH  017%=      5-min Rain = 0
KPVS 120310Z 03009KT 07/M16 A3031 RMK A01 T00741158  RH  018%=      5-min Rain = 0
KPVS 120315Z 03010KT 07/M16 A3032 RMK A01 T00731159  RH  018%=      5-min Rain = 0
KPVS 120320Z 03008KT 07/M16 A3032 RMK A01 T00721159  RH  018%=      5-min Rain = 0
KPVS 120325Z 04006KT 07/M16 A3032 RMK A01 T00701158  RH  018%=      5-min Rain = 0
KPVS 120330Z 04008KT 07/M15 A3032 RMK A01 T00691154  RH  019%=      5-min Rain = 0
KPVS 120335Z 04008KT 07/M15 A3033 RMK A01 T00701151  RH  019%=      5-min Rain = 0
KPVS 120340Z 04008KT 07/M15 A3033 RMK A01 T00671151  RH  020%=      5-min Rain = 0
KPVS 120345Z 04009KT 06/M15 A3033 RMK A01 T00641154  RH  020%=      5-min Rain = 0
KPVS 120350Z 04008KT 06/M15 A3034 RMK A01 T00621154  RH  020%=      5-min Rain = 0
KPVS 120355Z 04007KT 06/M15 A3034 RMK A01 T00591153  RH  020%=      5-min Rain = 0
KPVS 120400Z 04008KT 06/M15 A3034 RMK A01 T00561153  RH  021%=      5-min Rain = 0
KPVS 120405Z 04008KT 05/M15 A3034 RMK A01 T00541153  RH  021%=      5-min Rain = 0
KPVS 120410Z 04008KT 05/M15 A3034 RMK A01 T00541151  RH  022%=      5-min Rain = 0
KPVS 120415Z 04008KT 05/M14 A3034 RMK A01 T00531144  RH  023%=      5-min Rain = 0
KPVS 120420Z 04008KT 05/M14 A3034 RMK A01 T00521144  RH  023%=      5-min Rain = 0
KPVS 120425Z 04008KT 05/M14 A3034 RMK A01 T00511144  RH  023%=      5-min Rain = 0
KPVS 120430Z 04007KT 05/M14 A3035 RMK A01 T00501144  RH  023%=      5-min Rain = 0
KPVS 120435Z 04007KT 05/M14 A3034 RMK A01 T00491143  RH  024%=      5-min Rain = 0
KPVS 120440Z 04008KT 05/M14 A3034 RMK A01 T00491139  RH  025%=      5-min Rain = 0
KPVS 120445Z 04008KT 05/M14 A3034 RMK A01 T00491136  RH  025%=      5-min Rain = 0
KPVS 120450Z 04008KT 05/M13 A3034 RMK A01 T00481132  RH  026%=      5-min Rain = 0
KPVS 120455Z 05007KT 05/M13 A3034 RMK A01 T00481125  RH  028%=      5-min Rain = 0

Page generated in 0.2291 seconds.